Terminal Aerodrome Forecast
Issued by NWS Indianapolis, IN

Home | Current Version | Previous Version | Text Only | Print | Product List | Glossary On
Versions: 1 2 3 4 5 6 7 8 9 10 11 12 13 14 15 16 17 18 19 20 21 22 23 24 25 26
000
FTUS43 KIND 031425 AAB
TAFIND
TAF AMD
KIND 031425Z 0314/0418 21007KT P6SM BKN016
      TEMPO 0315/0316 SCT015
     FM031700 28012KT P6SM SCT020 SCT150
     FM040000 31007KT P6SM SCT100=

USA.gov is the U.S. government's official web portal to all federal, state and local government web resources and services.